Time;durP1;ratioP1;P1;durP2;ratioP2;P2;SDS_P1;SDS_P2;PMS_P1;PMS_P2;Temp;Humidity;BMP_temperature;BMP_pressure;BME280_temperature;BME280_humidity;BME280_pressure;Samples;Min_cycle;Max_cycle;Signal;HPM_P1;HPM_P2
2023/02/12 00:01:33;;;;;;;23.63;9.53;;;;;;;5.43;100.00;102667.81;7391833;19;20158;-59
2023/02/12 00:04:03;;;;;;;15.10;7.50;;;;;;;5.50;100.00;102677.88;7384380;19;20417;-58
2023/02/12 00:06:32;;;;;;;18.03;7.53;;;;;;;5.42;100.00;102681.38;7394372;19;20392;-60
2023/02/12 00:09:02;;;;;;;21.50;8.37;;;;;;;5.37;100.00;102691.22;7390457;19;20424;-59
2023/02/12 00:11:31;;;;;;;16.37;6.80;;;;;;;5.32;100.00;102704.34;7394664;19;20409;-58
2023/02/12 00:14:04;;;;;;;34.23;9.73;;;;;;;5.48;100.00;102710.13;7391955;19;20466;-60
2023/02/12 00:16:33;;;;;;;24.57;9.50;;;;;;;5.51;100.00;102722.31;7398462;19;20401;-58
2023/02/12 00:19:03;;;;;;;18.70;7.70;;;;;;;5.38;100.00;102720.25;7392022;19;20484;-57
2023/02/12 00:21:34;;;;;;;21.27;9.60;;;;;;;5.46;100.00;102721.91;7395649;19;20448;-56
2023/02/12 00:24:04;;;;;;;25.00;9.60;;;;;;;5.33;100.00;102800.84;7393608;19;20484;-59
2023/02/12 00:26:33;;;;;;;25.47;9.20;;;;;;;5.26;100.00;102738.84;7397687;19;20401;-58
2023/02/12 00:29:05;;;;;;;24.43;10.33;;;;;;;5.24;100.00;102734.31;7391439;19;21191;-59
2023/02/12 00:31:34;;;;;;;24.30;10.60;;;;;;;5.23;100.00;102743.66;7397412;19;20412;-55
2023/02/12 00:34:04;;;;;;;26.37;10.13;;;;;;;5.28;100.00;102754.31;7392740;19;20448;-56
2023/02/12 00:36:34;;;;;;;25.53;10.50;;;;;;;5.25;100.00;102761.72;7397534;19;20405;-56
2023/02/12 00:39:04;;;;;;;25.20;9.50;;;;;;;5.26;100.00;102772.09;7391700;19;20467;-58
2023/02/12 00:41:33;;;;;;;21.87;9.10;;;;;;;5.23;100.00;102778.59;7395397;19;20412;-58
2023/02/12 00:44:08;;;;;;;19.97;7.40;;;;;;;5.19;100.00;102779.97;7392992;19;20427;-56
2023/02/12 00:46:37;;;;;;;18.57;7.57;;;;;;;5.20;100.00;102784.31;7398010;19;21279;-59
2023/02/12 00:49:07;;;;;;;17.83;6.50;;;;;;;5.20;100.00;102794.56;7392222;19;20463;-59
2023/02/12 00:51:36;;;;;;;14.03;5.80;;;;;;;5.13;100.00;102803.28;7397563;19;20424;-59
2023/02/12 00:54:06;;;;;;;11.30;6.07;;;;;;;5.18;100.00;102803.72;7391553;19;20434;-59
2023/02/12 00:56:35;;;;;;;14.20;6.03;;;;;;;5.13;100.00;102828.00;7395719;19;20404;-55
2023/02/12 00:59:08;;;;;;;13.00;5.83;;;;;;;5.14;100.00;102829.78;7390539;19;20481;-59
2023/02/12 01:01:37;;;;;;;17.33;6.30;;;;;;;5.17;100.00;102849.66;7395603;19;20407;-59
2023/02/12 01:04:07;;;;;;;15.30;6.20;;;;;;;5.10;100.00;102873.75;7387556;19;20494;-60
2023/02/12 01:06:36;;;;;;;19.23;6.20;;;;;;;5.30;100.00;102892.69;7397092;19;20400;-59
2023/02/12 01:09:06;;;;;;;18.23;7.13;;;;;;;5.16;100.00;102906.69;7393069;19;20451;-58
2023/02/12 01:11:35;;;;;;;14.17;6.27;;;;;;;5.16;100.00;102925.53;7395693;19;21274;-58
2023/02/12 01:14:08;;;;;;;21.63;6.60;;;;;;;5.08;100.00;102946.91;7393697;19;20448;-56
2023/02/12 01:16:37;;;;;;;17.53;6.83;;;;;;;5.06;100.00;102981.66;7396042;19;20498;-59
2023/02/12 01:19:07;;;;;;;16.40;7.10;;;;;;;5.03;100.00;102999.28;7393518;19;20443;-56
2023/02/12 01:21:37;;;;;;;16.53;6.20;;;;;;;5.21;100.00;103020.69;7395244;19;20431;-55
2023/02/12 01:24:07;;;;;;;15.50;6.50;;;;;;;5.17;100.00;103037.38;7393259;19;20443;-57
2023/02/12 01:26:36;;;;;;;16.60;6.30;;;;;;;5.06;100.00;103056.78;7396415;19;20413;-59
2023/02/12 01:29:09;;;;;;;15.33;5.70;;;;;;;5.04;100.00;103067.59;7392196;19;20457;-59
2023/02/12 01:31:41;;;;;;;13.97;6.23;;;;;;;5.24;100.00;103082.44;7396343;19;20771;-59
2023/02/12 01:34:12;;;;;;;10.33;5.60;;;;;;;5.31;100.00;103089.06;7392784;19;20458;-59
2023/02/12 01:36:41;;;;;;;15.00;5.73;;;;;;;5.13;100.00;103097.59;7396105;19;20391;-57
2023/02/12 01:39:12;;;;;;;17.70;5.97;;;;;;;5.14;100.00;103103.63;7390206;19;20439;-58
2023/02/12 01:41:44;;;;;;;18.67;7.03;;;;;;;5.09;100.00;103107.38;7394571;19;20428;-53
2023/02/12 01:44:19;;;;;;;18.43;7.20;;;;;;;5.23;100.00;103112.22;7391542;19;20470;-58
2023/02/12 01:46:51;;;;;;;17.77;7.30;;;;;;;5.17;100.00;103126.97;7395899;19;20864;-58
2023/02/12 01:49:22;;;;;;;18.17;7.50;;;;;;;5.12;100.00;103128.16;7390905;19;20782;-58
2023/02/12 01:51:56;;;;;;;18.97;7.47;;;;;;;5.19;100.00;103137.38;7394903;19;20396;-58
2023/02/12 01:54:27;;;;;;;15.03;6.13;;;;;;;5.06;100.00;103148.00;7391685;19;20447;-59
2023/02/12 01:56:56;;;;;;;14.23;6.57;;;;;;;5.10;100.00;103155.25;7388633;19;20428;-58
2023/02/12 01:59:28;;;;;;;22.33;7.40;;;;;;;5.12;100.00;103156.31;7383318;19;20442;-59
2023/02/12 02:01:58;;;;;;;21.13;8.70;;;;;;;5.13;100.00;103155.56;7387561;19;20392;-58
2023/02/12 02:04:31;;;;;;;22.77;8.63;;;;;;;5.14;100.00;103154.81;7383574;19;20428;-59
2023/02/12 02:07:02;;;;;;;16.60;8.43;;;;;;;5.32;100.00;103160.00;7389479;19;20393;-60
2023/02/12 02:09:35;;;;;;;21.67;9.57;;;;;;;5.20;100.00;103155.44;7384616;19;20417;-59
2023/02/12 02:14:50;;;;;;;22.03;9.60;;;;;;;5.11;100.00;103159.63;7386078;19;20428;-60
2023/02/12 02:17:33;;;;;;;20.03;8.37;;;;;;;5.10;100.00;103173.16;7389511;19;20426;-58
2023/02/12 02:20:32;;;;;;;24.33;10.10;;;;;;;5.09;100.00;103171.34;7385694;19;20420;-58
2023/02/12 02:23:11;;;;;;;19.80;8.50;;;;;;;5.13;100.00;103176.06;7393266;19;20396;-59
2023/02/12 02:25:58;;;;;;;19.80;8.03;;;;;;;5.09;100.00;103187.59;7389389;19;20423;-59
2023/02/12 02:28:41;;;;;;;16.80;7.50;;;;;;;5.13;100.00;103191.41;7387122;19;21221;-58
2023/02/12 02:31:16;;;;;;;21.67;9.50;;;;;;;6.18;100.00;103169.38;7390514;19;20406;-59
2023/02/12 02:33:50;;;;;;;27.40;8.60;;;;;;;5.83;100.00;103177.03;7385763;19;20486;-57
2023/02/12 02:36:28;;;;;;;27.50;13.53;;;;;;;5.79;100.00;103178.34;7390119;19;20380;-58
2023/02/12 02:39:05;;;;;;;16.20;7.90;;;;;;;5.48;100.00;103206.91;7386294;19;20403;-57
2023/02/12 02:41:37;;;;;;;15.83;6.70;;;;;;;5.29;100.00;103205.78;7389778;19;20385;-56
2023/02/12 02:44:12;;;;;;;16.90;6.83;;;;;;;5.23;100.00;103229.09;7387440;19;20448;-56
2023/02/12 02:46:46;;;;;;;19.53;7.67;;;;;;;5.24;100.00;103247.16;7390421;19;20393;-57
2023/02/12 02:49:20;;;;;;;15.67;6.70;;;;;;;5.24;100.00;103251.38;7385632;19;20428;-59
2023/02/12 02:51:54;;;;;;;15.67;6.07;;;;;;;5.37;100.00;103259.56;7387769;19;20409;-55
2023/02/12 02:54:28;;;;;;;15.60;6.97;;;;;;;5.27;100.00;103252.59;7390445;19;20551;-58
2023/02/12 02:57:13;;;;;;;18.67;6.67;;;;;;;5.24;100.00;103249.72;7392464;19;20484;-53
2023/02/12 02:59:45;;;;;;;22.73;6.53;;;;;;;5.12;100.00;103245.88;7387847;19;20447;-58
2023/02/12 03:02:19;;;;;;;16.80;6.60;;;;;;;5.09;100.00;103253.25;7392982;19;20434;-59
2023/02/12 03:04:52;;;;;;;13.80;6.70;;;;;;;5.16;100.00;103252.22;7388394;19;20442;-52
2023/02/12 03:07:25;;;;;;;17.93;7.40;;;;;;;5.09;100.00;103258.38;7393848;19;20407;-58
2023/02/12 03:09:58;;;;;;;13.73;6.43;;;;;;;5.05;100.00;103263.91;7387978;19;20480;-57
2023/02/12 03:12:31;;;;;;;15.13;7.00;;;;;;;4.97;100.00;103253.78;7393832;19;20433;-58
2023/02/12 03:15:03;;;;;;;16.30;6.67;;;;;;;4.99;100.00;103244.59;7389465;19;20471;-55
2023/02/12 03:17:37;;;;;;;17.40;6.40;;;;;;;5.04;100.00;103242.53;7393902;19;20419;-56
2023/02/12 03:20:09;;;;;;;13.40;5.70;;;;;;;5.03;100.00;103239.81;7388504;19;20479;-58
2023/02/12 03:22:41;;;;;;;11.90;5.30;;;;;;;5.01;100.00;103231.97;7392501;19;20792;-55
2023/02/12 03:25:13;;;;;;;16.43;4.60;;;;;;;5.04;100.00;103233.94;7389713;19;20443;-57
2023/02/12 03:27:45;;;;;;;14.13;5.20;;;;;;;4.99;100.00;103226.69;7399781;19;20413;-57
2023/02/12 03:30:15;;;;;;;16.43;6.20;;;;;;;5.02;100.00;103217.53;7393116;19;20486;-57
2023/02/12 03:32:53;;;;;;;10.07;4.73;;;;;;;5.02;100.00;103222.66;7401292;19;20407;-56
2023/02/12 03:35:26;;;;;;;10.63;4.70;;;;;;;5.03;100.00;103219.34;7397284;19;20833;-58
2023/02/12 03:38:00;;;;;;;8.70;3.33;;;;;;;4.97;100.00;103223.06;7399809;19;20930;-56
2023/02/12 03:40:32;;;;;;;16.07;4.43;;;;;;;5.03;100.00;103214.22;7396408;19;20468;-56
2023/02/12 03:43:06;;;;;;;12.63;5.10;;;;;;;4.97;100.00;103214.50;7397484;19;20430;-59
2023/02/12 03:45:43;;;;;;;13.43;5.33;;;;;;;4.97;100.00;103207.72;7399362;19;20447;-53
2023/02/12 03:48:21;;;;;;;10.27;4.63;;;;;;;5.00;100.00;103207.13;7396459;19;20407;-55
2023/02/12 03:50:54;;;;;;;12.77;5.53;;;;;;;4.99;100.00;103208.78;7396070;19;20435;-56
2023/02/12 03:53:23;;;;;;;15.27;5.83;;;;;;;4.95;100.00;103206.66;7395574;19;20424;-59
2023/02/12 03:55:57;;;;;;;49.83;7.40;;;;;;;4.94;100.00;103207.41;7398942;19;21057;-54
2023/02/12 03:58:30;;;;;;;19.10;6.03;;;;;;;4.95;100.00;103196.44;7395617;19;20418;-57
2023/02/12 04:00:59;;;;;;;18.03;6.83;;;;;;;4.97;100.00;103206.84;7396431;19;20447;-57
2023/02/12 04:03:34;;;;;;;17.07;6.53;;;;;;;5.02;100.00;103207.31;7392689;19;21011;-52
2023/02/12 04:06:04;;;;;;;16.50;7.03;;;;;;;4.95;100.00;103196.44;7399190;19;20407;-54
2023/02/12 04:08:34;;;;;;;16.43;6.30;;;;;;;4.91;100.00;103198.53;7395445;19;20407;-59
2023/02/12 04:11:09;;;;;;;15.90;6.07;;;;;;;4.92;100.00;103215.69;7395809;19;20793;-57
2023/02/12 04:13:44;;;;;;;25.30;7.73;;;;;;;4.96;100.00;103213.59;7396056;19;20406;-55
2023/02/12 04:16:19;;;;;;;79.03;9.03;;;;;;;5.00;100.00;103205.50;7398917;19;20408;-56
2023/02/12 04:18:52;;;;;;;31.73;8.40;;;;;;;5.06;100.00;103204.28;7393680;19;20435;-56
2023/02/12 04:21:33;;;;;;;90.07;10.80;;;;;;;5.06;100.00;103194.06;7399086;19;20424;-53
2023/02/12 04:24:07;;;;;;;23.80;7.90;;;;;;;5.15;100.00;103205.25;7393421;19;20444;-55
2023/02/12 04:26:41;;;;;;;36.97;8.13;;;;;;;5.11;100.00;103206.59;7399392;19;20407;-58
2023/02/12 04:29:17;;;;;;;28.60;8.30;;;;;;;5.07;100.00;103207.03;7393489;19;20476;-52
2023/02/12 04:31:51;;;;;;;31.23;8.20;;;;;;;5.05;100.00;103207.59;7399332;19;20423;-53
2023/02/12 04:34:28;;;;;;;46.83;8.53;;;;;;;5.08;100.00;103207.94;7394452;19;20432;-57
2023/02/12 04:37:00;;;;;;;29.57;8.57;;;;;;;5.07;100.00;103211.25;7397305;19;20393;-54
2023/02/12 04:39:31;;;;;;;65.63;10.17;;;;;;;5.12;100.00;103207.50;7392957;19;20444;-57
2023/02/12 04:42:01;;;;;;;29.33;7.90;;;;;;;5.05;100.00;103215.28;7398034;19;20436;-55
2023/02/12 04:44:32;;;;;;;40.40;9.13;;;;;;;5.04;100.00;103214.41;7393785;19;20988;-57
2023/02/12 04:47:02;;;;;;;36.10;9.00;;;;;;;5.06;100.00;103220.56;7397401;19;20824;-59
2023/02/12 04:49:34;;;;;;;47.97;10.23;;;;;;;5.03;100.00;103219.34;7393041;19;20441;-54
2023/02/12 04:52:04;;;;;;;32.73;8.13;;;;;;;5.01;100.00;103224.28;7396605;19;20397;-52
2023/02/12 04:54:34;;;;;;;42.40;8.60;;;;;;;5.03;100.00;103209.09;7394212;19;20445;-56
2023/02/12 04:57:04;;;;;;;62.10;8.90;;;;;;;5.06;100.00;103214.53;7397287;19;20404;-53
2023/02/12 04:59:33;;;;;;;41.20;8.40;;;;;;;5.03;100.00;103204.00;7391773;19;20444;-56
2023/02/12 05:02:02;;;;;;;74.43;9.30;;;;;;;5.03;100.00;103201.44;7396650;19;20788;-57
2023/02/12 05:04:34;;;;;;;64.37;8.80;;;;;;;5.02;100.00;103189.38;7392459;19;20445;-56
2023/02/12 05:07:04;;;;;;;81.60;7.90;;;;;;;5.00;100.00;103192.69;7396755;19;20428;-51
2023/02/12 05:09:34;;;;;;;36.43;8.00;;;;;;;5.00;100.00;103186.66;7392336;19;20459;-56
2023/02/12 05:12:03;;;;;;;33.73;6.67;;;;;;;4.97;100.00;103182.13;7396922;19;20411;-54
2023/02/12 05:14:32;;;;;;;31.90;8.13;;;;;;;5.00;100.00;103174.78;7392741;19;20914;-57
2023/02/12 05:17:02;;;;;;;49.90;6.53;;;;;;;4.96;100.00;103158.94;7396223;19;20752;-51
2023/02/12 05:19:34;;;;;;;47.97;6.83;;;;;;;4.97;100.00;103156.53;7391841;19;20848;-58
2023/02/12 05:22:04;;;;;;;42.13;6.40;;;;;;;4.97;100.00;103142.88;7396495;19;20407;-55
2023/02/12 05:24:33;;;;;;;67.70;7.93;;;;;;;4.99;100.00;103121.78;7392383;19;20465;-53
2023/02/12 05:27:02;;;;;;;75.63;8.83;;;;;;;5.10;100.00;103098.94;7395955;19;20431;-55
2023/02/12 05:29:32;;;;;;;59.53;8.43;;;;;;;5.03;100.00;103079.50;7391466;19;20452;-57
2023/02/12 05:32:01;;;;;;;35.43;7.10;;;;;;;5.07;100.00;103060.25;7395941;19;20405;-57
2023/02/12 05:34:31;;;;;;;75.27;8.90;;;;;;;5.05;100.00;103041.28;7392285;19;20812;-55
2023/02/12 05:37:04;;;;;;;28.80;7.53;;;;;;;5.05;100.00;103024.28;7395619;19;20399;-57
2023/02/12 05:39:33;;;;;;;82.90;9.30;;;;;;;5.04;100.00;103008.75;7391168;19;20448;-55
2023/02/12 05:42:03;;;;;;;29.93;8.30;;;;;;;5.05;100.00;103002.88;7393810;19;20980;-57
2023/02/12 05:44:32;;;;;;;63.27;9.97;;;;;;;5.05;100.00;102995.22;7391644;19;20520;-58
2023/02/12 05:47:02;;;;;;;99.40;16.13;;;;;;;5.04;100.00;103016.44;7396190;19;20396;-53
2023/02/12 05:49:31;;;;;;;47.03;9.43;;;;;;;5.01;100.00;102983.75;7389407;19;20466;-55
2023/02/12 05:52:03;;;;;;;47.17;8.57;;;;;;;5.04;100.00;102965.25;7396797;19;20418;-58
2023/02/12 05:54:33;;;;;;;56.43;7.87;;;;;;;5.01;100.00;102953.06;7392074;19;20813;-59
2023/02/12 05:57:02;;;;;;;34.57;9.23;;;;;;;5.05;100.00;102941.47;7395478;19;20400;-56
2023/02/12 05:59:32;;;;;;;46.57;8.50;;;;;;;5.03;100.00;102932.75;7388958;19;20987;-50
2023/02/12 06:02:01;;;;;;;43.97;9.70;;;;;;;5.00;100.00;102912.88;7394480;19;20403;-55
2023/02/12 06:04:32;;;;;;;58.30;11.67;;;;;;;5.03;100.00;102912.28;7391401;19;21035;-57
2023/02/12 06:07:04;;;;;;;58.83;10.30;;;;;;;5.04;100.00;102898.72;7395881;19;21106;-59
2023/02/12 06:09:33;;;;;;;46.83;10.20;;;;;;;5.01;100.00;102896.75;7390443;19;20462;-56
2023/02/12 06:12:03;;;;;;;52.87;10.30;;;;;;;5.04;100.00;102891.97;7394953;19;20410;-57
2023/02/12 06:14:32;;;;;;;70.87;10.50;;;;;;;5.05;100.00;102895.41;7391669;19;20441;-53
2023/02/12 06:17:02;;;;;;;46.47;10.10;;;;;;;5.04;100.00;102891.06;7393966;19;20428;-56
2023/02/12 06:19:31;;;;;;;51.67;11.33;;;;;;;5.04;100.00;102891.06;7391315;19;20467;-56
2023/02/12 06:22:04;;;;;;;84.87;11.90;;;;;;;5.05;100.00;102880.06;7395040;19;20762;-55
2023/02/12 06:24:34;;;;;;;47.67;10.97;;;;;;;5.03;100.00;102876.47;7391974;19;20562;-57
2023/02/12 06:27:03;;;;;;;55.50;10.83;;;;;;;5.03;100.00;102871.34;7394984;19;20765;-56
2023/02/12 06:29:32;;;;;;;67.83;11.80;;;;;;;5.03;100.00;102876.47;7389865;19;20454;-58
2023/02/12 06:32:02;;;;;;;75.27;11.47;;;;;;;5.03;100.00;102877.34;7393945;19;20402;-58
2023/02/12 06:34:32;;;;;;;95.57;12.67;;;;;;;5.08;100.00;102859.91;7391957;19;20442;-55
2023/02/12 06:37:04;;;;;;;73.50;12.70;;;;;;;5.08;100.00;102852.22;7394691;19;20756;-53
2023/02/12 06:39:33;;;;;;;47.93;12.80;;;;;;;5.11;100.00;102848.31;7391090;19;20463;-57
2023/02/12 06:42:03;;;;;;;86.63;15.27;;;;;;;5.09;100.00;102842.13;7394358;19;20392;-57
2023/02/12 06:44:32;;;;;;;71.10;13.90;;;;;;;5.13;100.00;102835.66;7389670;19;20454;-55
2023/02/12 06:47:02;;;;;;;86.07;13.50;;;;;;;5.16;100.00;102835.03;7394549;19;20437;-57
2023/02/12 06:49:31;;;;;;;69.00;12.87;;;;;;;5.12;100.00;102836.41;7389725;19;20443;-56
2023/02/12 06:52:03;;;;;;;55.87;12.63;;;;;;;5.16;100.00;102833.38;7394027;19;20396;-56
2023/02/12 06:54:33;;;;;;;140.17;16.60;;;;;;;5.18;100.00;102839.56;7391207;19;20812;-59
2023/02/12 06:57:02;;;;;;;70.53;13.90;;;;;;;5.22;100.00;102836.53;7393827;19;20395;-57
2023/02/12 06:59:32;;;;;;;101.33;14.10;;;;;;;5.15;100.00;102834.16;7387528;19;20455;-53
2023/02/12 07:02:01;;;;;;;86.50;15.57;;;;;;;5.20;100.00;102848.31;7396161;19;20424;-52
2023/02/12 07:04:31;;;;;;;83.77;14.37;;;;;;;5.16;100.00;102848.75;7396284;19;21025;-57
2023/02/12 07:07:05;;;;;;;98.67;14.67;;;;;;;5.24;100.00;102847.81;7401002;19;20403;-57
2023/02/12 07:09:35;;;;;;;91.80;15.07;;;;;;;5.24;100.00;102852.94;7397083;19;20460;-52
2023/02/12 07:12:05;;;;;;;107.40;15.80;;;;;;;5.18;100.00;102857.47;7399882;19;20408;-57
2023/02/12 07:14:34;;;;;;;124.17;13.80;;;;;;;5.21;100.00;102850.09;7398264;19;20872;-55
2023/02/12 07:17:06;;;;;;;145.80;16.10;;;;;;;5.24;100.00;102852.06;7400779;19;20927;-55
2023/02/12 07:19:36;;;;;;;79.10;14.80;;;;;;;5.22;100.00;102846.78;7396993;19;20472;-58
2023/02/12 07:22:08;;;;;;;163.27;14.60;;;;;;;5.17;100.00;102840.31;7400558;19;20423;-54
2023/02/12 07:24:38;;;;;;;131.23;14.07;;;;;;;5.20;100.00;102894.38;7396881;19;20837;-55
2023/02/12 07:27:07;;;;;;;84.80;13.83;;;;;;;5.21;100.00;102841.50;7400420;19;20403;-58
2023/02/12 07:29:36;;;;;;;72.17;13.77;;;;;;;5.25;100.00;102865.03;7395762;19;20471;-55
2023/02/12 07:32:06;;;;;;;89.57;14.87;;;;;;;5.33;100.00;102840.13;7399972;19;20405;-55
2023/02/12 07:34:36;;;;;;;85.80;14.43;;;;;;;5.31;100.00;102843.31;7397636;19;20515;-56
2023/02/12 07:37:08;;;;;;;56.10;14.57;;;;;;;5.26;100.00;102842.88;7399980;19;20396;-53
2023/02/12 07:39:38;;;;;;;87.13;14.83;;;;;;;5.30;100.00;102832.19;7395593;19;20454;-57
2023/02/12 07:42:07;;;;;;;92.30;15.00;;;;;;;5.26;100.00;102841.22;7399164;19;20423;-56
2023/02/12 07:44:37;;;;;;;96.50;12.80;;;;;;;5.30;100.00;102832.19;7394951;19;20451;-54
2023/02/12 07:47:06;;;;;;;165.03;17.00;;;;;;;5.36;100.00;102826.72;7399411;19;20424;-56
2023/02/12 07:49:36;;;;;;;124.63;16.57;;;;;;;5.40;100.00;102826.28;7391138;19;20463;-56
2023/02/12 07:52:08;;;;;;;105.30;15.70;;;;;;;5.35;100.00;102824.94;7399632;19;20408;-57
2023/02/12 07:54:41;;;;;;;159.67;19.27;;;;;;;5.40;100.00;102813.47;7396798;19;20826;-56
2023/02/12 07:57:10;;;;;;;83.17;14.37;;;;;;;5.40;100.00;102808.38;7399034;19;20420;-55
2023/02/12 07:59:40;;;;;;;70.77;15.17;;;;;;;5.37;100.00;102808.06;7394541;19;20455;-54
2023/02/12 08:02:11;;;;;;;62.40;14.80;;;;;;;5.42;100.00;102811.06;7399080;19;20421;-56
2023/02/12 08:04:40;;;;;;;83.80;14.70;;;;;;;5.37;100.00;102797.81;7394875;19;20440;-55
2023/02/12 08:07:12;;;;;;;93.70;15.53;;;;;;;5.46;100.00;102793.59;7398993;19;20400;-56
2023/02/12 08:09:42;;;;;;;89.13;14.73;;;;;;;5.45;100.00;102755.94;7392605;19;21015;-55
2023/02/12 08:12:11;;;;;;;74.20;15.17;;;;;;;5.45;100.00;102763.63;7398249;19;20406;-57
2023/02/12 08:14:41;;;;;;;60.63;15.50;;;;;;;5.50;100.00;102754.69;7395838;19;20444;-57
2023/02/12 08:17:10;;;;;;;100.67;16.20;;;;;;;5.53;100.00;102755.00;7399005;19;20390;-56
2023/02/12 08:19:40;;;;;;;113.63;17.80;;;;;;;5.53;100.00;102748.97;7394021;19;20463;-57
2023/02/12 08:22:09;;;;;;;90.73;15.90;;;;;;;5.60;100.00;102756.50;7398291;19;20435;-59
2023/02/12 08:24:42;;;;;;;118.07;17.73;;;;;;;5.57;100.00;102750.16;7394561;19;20450;-57
2023/02/12 08:27:11;;;;;;;73.67;16.17;;;;;;;5.66;100.00;102751.03;7398631;19;20974;-57
2023/02/12 08:29:41;;;;;;;82.77;17.60;;;;;;;5.72;100.00;102754.16;7394561;19;20453;-58
2023/02/12 08:32:13;;;;;;;94.20;16.50;;;;;;;5.71;100.00;102746.31;7398056;19;20425;-58
2023/02/12 08:34:42;;;;;;;58.47;16.50;;;;;;;5.71;100.00;102747.25;7395719;19;20431;-54
2023/02/12 08:37:11;;;;;;;55.93;15.77;;;;;;;5.65;100.00;102749.22;7398230;19;20811;-58
2023/02/12 08:39:43;;;;;;;56.07;15.27;;;;;;;5.69;100.00;102766.66;7394085;19;20489;-57
2023/02/12 08:42:13;;;;;;;55.90;15.63;;;;;;;5.83;100.00;102759.41;7397723;19;20400;-57
2023/02/12 08:44:43;;;;;;;63.73;16.50;;;;;;;5.84;100.00;102756.06;7394448;19;20457;-57
2023/02/12 08:47:13;;;;;;;83.13;14.93;;;;;;;5.98;100.00;102760.81;7397808;19;20964;-58
2023/02/12 08:49:42;;;;;;;69.27;16.23;;;;;;;5.85;100.00;102752.75;7393032;19;20447;-56
2023/02/12 08:52:12;;;;;;;43.37;15.57;;;;;;;5.89;100.00;102765.09;7396400;19;20406;-57
2023/02/12 08:54:44;;;;;;;52.83;15.50;;;;;;;5.96;100.00;102759.78;7394918;19;20438;-55
2023/02/12 08:57:13;;;;;;;52.60;16.50;;;;;;;5.93;100.00;102756.91;7397758;19;20427;-57
2023/02/12 08:59:43;;;;;;;85.00;20.70;;;;;;;5.96;100.00;102770.03;7392661;19;20439;-54
2023/02/12 09:02:12;;;;;;;51.30;15.10;;;;;;;5.93;100.00;102767.16;7397615;19;20418;-56
2023/02/12 09:04:42;;;;;;;47.13;13.93;;;;;;;5.93;100.00;102769.72;7392535;19;20454;-57
2023/02/12 09:07:11;;;;;;;50.23;14.17;;;;;;;5.88;100.00;102773.50;7396517;19;20433;-55
2023/02/12 09:09:43;;;;;;;48.50;14.60;;;;;;;5.89;100.00;102771.09;7391656;19;20458;-55
2023/02/12 09:12:13;;;;;;;44.10;14.37;;;;;;;5.93;100.00;102775.75;7396305;19;20407;-55
2023/02/12 09:14:42;;;;;;;51.53;16.30;;;;;;;6.07;100.00;102763.34;7393409;19;20458;-57
2023/02/12 09:17:11;;;;;;;54.47;16.00;;;;;;;6.12;100.00;102772.38;7395482;19;20387;-56
2023/02/12 09:19:41;;;;;;;46.57;14.20;;;;;;;6.04;100.00;102771.66;7391780;19;20478;-55
2023/02/12 09:22:11;;;;;;;46.53;15.83;;;;;;;6.00;100.00;102776.34;7395857;19;20941;-56
2023/02/12 09:24:40;;;;;;;48.33;13.20;;;;;;;6.03;100.00;102775.00;7390883;19;20458;-51
2023/02/12 09:27:12;;;;;;;46.27;13.20;;;;;;;6.12;100.00;102764.69;7396072;19;20414;-56
2023/02/12 09:29:41;;;;;;;39.30;13.60;;;;;;;6.13;100.00;102765.56;7391785;19;20447;-56
2023/02/12 09:32:11;;;;;;;42.33;14.10;;;;;;;6.11;100.00;102772.22;7395458;19;20406;-53
2023/02/12 09:34:40;;;;;;;49.20;13.93;;;;;;;6.11;100.00;102778.28;7392923;19;20438;-57
2023/02/12 09:37:10;;;;;;;38.63;12.50;;;;;;;6.18;100.00;102783.19;7395412;19;20415;-55
2023/02/12 09:39:39;;;;;;;40.20;14.07;;;;;;;6.18;100.00;102782.28;7391104;19;20471;-54
2023/02/12 09:42:23;;;;;;;36.10;12.20;;;;;;;6.14;100.00;102798.13;7395197;19;20409;-57
2023/02/12 09:44:57;;;;;;;37.60;12.40;;;;;;;6.08;100.00;102794.25;7391657;19;20469;-58
2023/02/12 09:47:32;;;;;;;43.63;15.30;;;;;;;6.25;100.00;102796.59;7395093;19;20425;-56
2023/02/12 09:50:12;;;;;;;49.90;15.20;;;;;;;6.24;100.00;102805.91;7389193;19;20454;-57
2023/02/12 09:52:42;;;;;;;42.07;14.13;;;;;;;6.32;100.00;102815.22;7397083;19;20388;-55
2023/02/12 09:55:16;;;;;;;45.17;13.63;;;;;;;6.31;100.00;102817.66;7392881;19;20567;-58
2023/02/12 09:57:50;;;;;;;41.53;12.70;;;;;;;6.28;100.00;102823.41;7396455;19;20415;-59
2023/02/12 10:00:27;;;;;;;32.67;13.30;;;;;;;6.30;100.00;102826.13;7390648;19;20498;-54
2023/02/12 10:02:57;;;;;;;31.30;13.30;;;;;;;6.21;100.00;102832.19;7395160;19;20409;-57
2023/02/12 10:05:29;;;;;;;40.33;12.20;;;;;;;6.17;100.00;102845.47;7391455;19;20467;-59
2023/02/12 10:08:08;;;;;;;36.90;13.40;;;;;;;6.24;100.00;102846.94;7394976;19;20401;-59
2023/02/12 10:10:47;;;;;;;42.13;12.43;;;;;;;6.22;100.00;102843.34;7393031;19;20465;-58
2023/02/12 10:13:28;;;;;;;48.10;14.60;;;;;;;6.24;100.00;102851.19;7391516;19;20405;-55
2023/02/12 10:16:01;;;;;;;54.43;18.93;;;;;;;6.32;100.00;102851.09;7394229;19;20948;-56
2023/02/12 10:18:52;;;;;;;40.57;14.03;;;;;;;6.27;100.00;102852.38;7390764;19;20482;-53
2023/02/12 10:21:32;;;;;;;42.93;13.30;;;;;;;6.15;100.00;102864.94;7394443;19;20410;-57
2023/02/12 10:24:15;;;;;;;44.70;14.33;;;;;;;6.21;100.00;102880.88;7390778;19;21012;-57
2023/02/12 10:26:48;;;;;;;37.67;13.70;;;;;;;6.17;100.00;102885.59;7393487;19;20430;-55
2023/02/12 10:29:22;;;;;;;43.63;14.80;;;;;;;6.17;100.00;102878.81;7389438;19;20478;-55
2023/02/12 10:31:55;;;;;;;44.70;12.37;;;;;;;6.14;100.00;102881.06;7393825;19;20399;-57
2023/02/12 10:34:44;;;;;;;45.17;13.97;;;;;;;6.10;100.00;102883.22;7390647;19;20444;-57
2023/02/12 10:37:20;;;;;;;36.80;12.43;;;;;;;6.10;100.00;102888.34;7393702;19;20403;-57
2023/02/12 10:39:53;;;;;;;37.97;13.47;;;;;;;6.14;100.00;102886.19;7388264;19;20481;-56
2023/02/12 10:42:27;;;;;;;46.83;15.00;;;;;;;6.12;100.00;102882.59;7393402;19;20929;-55
2023/02/12 10:44:59;;;;;;;47.97;14.80;;;;;;;6.15;100.00;102887.13;7390451;19;20979;-56
2023/02/12 10:47:29;;;;;;;43.63;14.93;;;;;;;6.19;100.00;102886.63;7392560;19;20414;-58
2023/02/12 10:50:01;;;;;;;43.30;14.90;;;;;;;6.21;100.00;102882.56;7388669;19;20441;-56
2023/02/12 10:52:38;;;;;;;45.87;16.47;;;;;;;6.25;100.00;102883.75;7393726;19;20413;-57
2023/02/12 10:55:26;;;;;;;46.23;15.77;;;;;;;6.28;100.00;102881.44;7390201;19;21005;-58
2023/02/12 10:57:56;;;;;;;41.23;14.00;;;;;;;6.26;100.00;102883.88;7392826;19;20437;-58
2023/02/12 11:00:32;;;;;;;54.57;15.33;;;;;;;6.27;100.00;102890.81;7388177;19;20456;-59
2023/02/12 11:03:05;;;;;;;40.07;12.33;;;;;;;6.20;100.00;102891.91;7393306;19;20409;-56
2023/02/12 11:05:37;;;;;;;46.40;13.50;;;;;;;6.18;100.00;102895.06;7392605;19;20446;-53
2023/02/12 11:08:07;;;;;;;38.30;13.17;;;;;;;6.17;100.00;102893.28;7390768;19;20382;-56
2023/02/12 11:10:39;;;;;;;47.87;14.57;;;;;;;6.14;100.00;102886.19;7390827;19;20469;-56
2023/02/12 11:13:24;;;;;;;42.30;14.57;;;;;;;6.19;100.00;102889.19;7389884;19;20418;-57
2023/02/12 11:15:56;;;;;;;33.80;11.00;;;;;;;6.14;100.00;102882.72;7392379;19;20421;-56
2023/02/12 11:18:28;;;;;;;48.70;14.53;;;;;;;6.21;100.00;102875.75;7388315;19;20437;-57
2023/02/12 11:20:59;;;;;;;43.70;13.80;;;;;;;6.22;100.00;102868.97;7390226;19;20456;-57
2023/02/12 11:23:30;;;;;;;50.20;14.13;;;;;;;6.28;100.00;102873.75;7388699;19;21056;-58
2023/02/12 11:26:02;;;;;;;49.17;14.70;;;;;;;6.29;100.00;102881.59;7391756;19;20405;-52
2023/02/12 11:28:33;;;;;;;39.27;12.70;;;;;;;6.30;100.00;102867.13;7388696;19;20570;-59
2023/02/12 11:31:22;;;;;;;37.37;12.07;;;;;;;6.32;100.00;102863.94;7390797;19;20472;-57
2023/02/12 11:34:09;;;;;;;37.10;12.20;;;;;;;6.33;100.00;102863.19;7387806;19;20430;-54
2023/02/12 11:36:42;;;;;;;34.77;12.27;;;;;;;6.29;100.00;102865.31;7392438;19;20422;-57